Aviation Digital Data Service (ADDS)

Output produced by METARs form (1744 UTC 25 February 2018)
found at http://aviationweather.gov/adds/metars/
 
KCLL 251701Z 05013KT 10SM OVC029 14/11 A3004 RMK AO2 T01440111